sensor_id;sensor_type;location;lat;lon;timestamp;P1;durP1;ratioP1;P2;durP2;ratioP2
21274;SDS011;36472;52.170;20.884;2024-03-02T00:01:34;49.05;;;31.55;;
21274;SDS011;36472;52.170;20.884;2024-03-02T00:04:05;47.50;;;30.48;;
21274;SDS011;36472;52.170;20.884;2024-03-02T00:06:36;46.33;;;29.40;;
21274;SDS011;36472;52.170;20.884;2024-03-02T00:09:05;46.88;;;28.02;;
21274;SDS011;36472;52.170;20.884;2024-03-02T00:11:40;51.72;;;30.83;;
21274;SDS011;36472;52.170;20.884;2024-03-02T00:14:11;46.30;;;30.45;;
21274;SDS011;36472;52.170;20.884;2024-03-02T00:16:41;45.22;;;28.75;;
21274;SDS011;36472;52.170;20.884;2024-03-02T00:19:12;43.75;;;28.60;;
21274;SDS011;36472;52.170;20.884;2024-03-02T00:21:41;46.70;;;29.73;;
21274;SDS011;36472;52.170;20.884;2024-03-02T00:24:16;45.45;;;28.88;;
21274;SDS011;36472;52.170;20.884;2024-03-02T00:26:49;45.85;;;28.10;;
21274;SDS011;36472;52.170;20.884;2024-03-02T00:29:18;41.83;;;28.02;;
21274;SDS011;36472;52.170;20.884;2024-03-02T00:31:48;38.78;;;27.25;;
21274;SDS011;36472;52.170;20.884;2024-03-02T00:34:18;41.95;;;27.52;;
21274;SDS011;36472;52.170;20.884;2024-03-02T00:36:47;41.35;;;26.98;;
21274;SDS011;36472;52.170;20.884;2024-03-02T00:39:18;44.45;;;27.98;;
21274;SDS011;36472;52.170;20.884;2024-03-02T00:41:47;47.70;;;28.98;;
21274;SDS011;36472;52.170;20.884;2024-03-02T00:44:16;42.95;;;28.30;;
21274;SDS011;36472;52.170;20.884;2024-03-02T00:46:56;49.75;;;29.60;;
21274;SDS011;36472;52.170;20.884;2024-03-02T00:49:29;40.50;;;26.15;;
21274;SDS011;36472;52.170;20.884;2024-03-02T00:51:58;45.17;;;27.58;;
21274;SDS011;36472;52.170;20.884;2024-03-02T00:54:27;40.65;;;27.20;;
21274;SDS011;36472;52.170;20.884;2024-03-02T00:56:58;44.95;;;27.30;;
21274;SDS011;36472;52.170;20.884;2024-03-02T00:59:27;43.38;;;26.50;;
21274;SDS011;36472;52.170;20.884;2024-03-02T01:01:56;44.08;;;27.83;;
21274;SDS011;36472;52.170;20.884;2024-03-02T01:04:25;44.28;;;27.42;;
21274;SDS011;36472;52.170;20.884;2024-03-02T01:06:56;44.10;;;28.38;;
21274;SDS011;36472;52.170;20.884;2024-03-02T01:09:26;41.50;;;27.52;;
21274;SDS011;36472;52.170;20.884;2024-03-02T01:11:55;41.97;;;28.40;;
21274;SDS011;36472;52.170;20.884;2024-03-02T01:14:25;40.15;;;26.30;;
21274;SDS011;36472;52.170;20.884;2024-03-02T01:16:54;41.97;;;26.70;;
21274;SDS011;36472;52.170;20.884;2024-03-02T01:19:23;43.42;;;27.85;;
21274;SDS011;36472;52.170;20.884;2024-03-02T01:21:52;42.50;;;27.77;;
21274;SDS011;36472;52.170;20.884;2024-03-02T01:24:23;40.55;;;26.83;;
21274;SDS011;36472;52.170;20.884;2024-03-02T01:26:55;46.17;;;28.30;;
21274;SDS011;36472;52.170;20.884;2024-03-02T01:29:24;39.95;;;26.65;;
21274;SDS011;36472;52.170;20.884;2024-03-02T01:31:53;43.35;;;27.60;;
21274;SDS011;36472;52.170;20.884;2024-03-02T01:34:24;43.92;;;26.63;;
21274;SDS011;36472;52.170;20.884;2024-03-02T01:36:53;41.10;;;26.88;;
21274;SDS011;36472;52.170;20.884;2024-03-02T01:39:26;42.60;;;27.83;;
21274;SDS011;36472;52.170;20.884;2024-03-02T01:41:55;45.90;;;28.23;;
21274;SDS011;36472;52.170;20.884;2024-03-02T01:44:24;44.22;;;27.20;;
21274;SDS011;36472;52.170;20.884;2024-03-02T01:46:54;44.22;;;28.23;;
21274;SDS011;36472;52.170;20.884;2024-03-02T01:49:23;43.63;;;27.23;;
21274;SDS011;36472;52.170;20.884;2024-03-02T01:51:54;44.00;;;27.20;;
21274;SDS011;36472;52.170;20.884;2024-03-02T01:54:23;46.80;;;28.08;;
21274;SDS011;36472;52.170;20.884;2024-03-02T01:56:56;42.55;;;27.50;;
21274;SDS011;36472;52.170;20.884;2024-03-02T01:59:25;43.78;;;27.77;;
21274;SDS011;36472;52.170;20.884;2024-03-02T02:01:55;44.20;;;28.13;;
21274;SDS011;36472;52.170;20.884;2024-03-02T02:04:24;42.75;;;27.88;;
21274;SDS011;36472;52.170;20.884;2024-03-02T02:06:54;47.65;;;28.98;;
21274;SDS011;36472;52.170;20.884;2024-03-02T02:09:24;44.65;;;28.05;;
21274;SDS011;36472;52.170;20.884;2024-03-02T02:11:55;47.63;;;27.85;;
21274;SDS011;36472;52.170;20.884;2024-03-02T02:14:24;42.45;;;27.75;;
21274;SDS011;36472;52.170;20.884;2024-03-02T02:16:53;43.42;;;27.83;;
21274;SDS011;36472;52.170;20.884;2024-03-02T02:19:22;43.83;;;27.40;;
21274;SDS011;36472;52.170;20.884;2024-03-02T02:21:53;42.88;;;28.25;;
21274;SDS011;36472;52.170;20.884;2024-03-02T02:24:22;40.65;;;25.88;;
21274;SDS011;36472;52.170;20.884;2024-03-02T02:26:51;44.40;;;27.50;;
21274;SDS011;36472;52.170;20.884;2024-03-02T02:29:20;41.03;;;27.05;;
21274;SDS011;36472;52.170;20.884;2024-03-02T02:31:52;46.58;;;28.52;;
21274;SDS011;36472;52.170;20.884;2024-03-02T02:34:21;42.72;;;27.70;;
21274;SDS011;36472;52.170;20.884;2024-03-02T02:36:50;44.20;;;29.15;;
21274;SDS011;36472;52.170;20.884;2024-03-02T02:39:21;43.70;;;27.80;;
21274;SDS011;36472;52.170;20.884;2024-03-02T02:41:52;44.80;;;28.17;;
21274;SDS011;36472;52.170;20.884;2024-03-02T02:44:23;43.80;;;27.42;;
21274;SDS011;36472;52.170;20.884;2024-03-02T02:46:53;42.90;;;28.38;;
21274;SDS011;36472;52.170;20.884;2024-03-02T02:49:25;43.55;;;27.50;;
21274;SDS011;36472;52.170;20.884;2024-03-02T02:51:55;42.20;;;27.20;;
21274;SDS011;36472;52.170;20.884;2024-03-02T02:54:24;44.95;;;27.98;;
21274;SDS011;36472;52.170;20.884;2024-03-02T02:56:53;48.78;;;29.08;;
21274;SDS011;36472;52.170;20.884;2024-03-02T02:59:22;43.10;;;27.10;;
21274;SDS011;36472;52.170;20.884;2024-03-02T03:01:51;47.47;;;27.52;;
21274;SDS011;36472;52.170;20.884;2024-03-02T03:04:20;46.85;;;27.65;;
21274;SDS011;36472;52.170;20.884;2024-03-02T03:06:51;42.35;;;27.58;;
21274;SDS011;36472;52.170;20.884;2024-03-02T03:09:23;45.53;;;28.35;;
21274;SDS011;36472;52.170;20.884;2024-03-02T03:11:52;41.95;;;27.08;;
21274;SDS011;36472;52.170;20.884;2024-03-02T03:14:21;44.67;;;27.35;;
21274;SDS011;36472;52.170;20.884;2024-03-02T03:16:51;38.53;;;26.20;;
21274;SDS011;36472;52.170;20.884;2024-03-02T03:19:21;45.28;;;26.90;;
21274;SDS011;36472;52.170;20.884;2024-03-02T03:21:49;39.28;;;25.20;;
21274;SDS011;36472;52.170;20.884;2024-03-02T03:24:19;42.22;;;26.30;;
21274;SDS011;36472;52.170;20.884;2024-03-02T03:26:50;44.20;;;26.95;;
21274;SDS011;36472;52.170;20.884;2024-03-02T03:29:19;42.22;;;26.35;;
21274;SDS011;36472;52.170;20.884;2024-03-02T03:31:48;40.70;;;26.05;;
21274;SDS011;36472;52.170;20.884;2024-03-02T03:34:17;44.67;;;26.52;;
21274;SDS011;36472;52.170;20.884;2024-03-02T03:36:46;44.38;;;27.83;;
21274;SDS011;36472;52.170;20.884;2024-03-02T03:39:16;42.13;;;26.60;;
21274;SDS011;36472;52.170;20.884;2024-03-02T03:41:45;41.03;;;27.02;;
21274;SDS011;36472;52.170;20.884;2024-03-02T03:44:15;41.47;;;26.45;;
21274;SDS011;36472;52.170;20.884;2024-03-02T03:46:44;42.92;;;26.45;;
21274;SDS011;36472;52.170;20.884;2024-03-02T03:49:13;41.15;;;25.70;;
21274;SDS011;36472;52.170;20.884;2024-03-02T03:51:42;39.58;;;25.45;;
21274;SDS011;36472;52.170;20.884;2024-03-02T03:54:11;44.08;;;27.30;;
21274;SDS011;36472;52.170;20.884;2024-03-02T03:56:40;39.67;;;24.90;;
21274;SDS011;36472;52.170;20.884;2024-03-02T03:59:10;38.55;;;24.33;;
21274;SDS011;36472;52.170;20.884;2024-03-02T04:01:41;42.03;;;25.23;;
21274;SDS011;36472;52.170;20.884;2024-03-02T04:04:10;41.80;;;26.42;;
21274;SDS011;36472;52.170;20.884;2024-03-02T04:06:39;39.55;;;24.88;;
21274;SDS011;36472;52.170;20.884;2024-03-02T04:09:09;42.55;;;26.17;;
21274;SDS011;36472;52.170;20.884;2024-03-02T04:11:38;41.10;;;27.05;;
21274;SDS011;36472;52.170;20.884;2024-03-02T04:14:07;42.63;;;25.58;;
21274;SDS011;36472;52.170;20.884;2024-03-02T04:16:36;38.80;;;25.58;;
21274;SDS011;36472;52.170;20.884;2024-03-02T04:19:07;42.17;;;25.55;;
21274;SDS011;36472;52.170;20.884;2024-03-02T04:21:36;41.63;;;25.95;;
21274;SDS011;36472;52.170;20.884;2024-03-02T04:24:05;36.97;;;24.63;;
21274;SDS011;36472;52.170;20.884;2024-03-02T04:26:35;40.20;;;24.95;;
21274;SDS011;36472;52.170;20.884;2024-03-02T04:29:04;40.78;;;25.60;;
21274;SDS011;36472;52.170;20.884;2024-03-02T04:31:33;39.08;;;25.77;;
21274;SDS011;36472;52.170;20.884;2024-03-02T04:34:02;37.40;;;24.33;;
21274;SDS011;36472;52.170;20.884;2024-03-02T04:36:33;40.03;;;25.75;;
21274;SDS011;36472;52.170;20.884;2024-03-02T04:39:02;40.08;;;25.17;;
21274;SDS011;36472;52.170;20.884;2024-03-02T04:41:31;44.38;;;26.77;;
21274;SDS011;36472;52.170;20.884;2024-03-02T04:44:00;39.53;;;26.05;;
21274;SDS011;36472;52.170;20.884;2024-03-02T04:51:01;42.63;;;24.35;;
21274;SDS011;36472;52.170;20.884;2024-03-02T04:53:31;40.45;;;24.92;;
21274;SDS011;36472;52.170;20.884;2024-03-02T04:56:04;40.28;;;25.30;;
21274;SDS011;36472;52.170;20.884;2024-03-02T04:59:06;40.38;;;25.65;;
21274;SDS011;36472;52.170;20.884;2024-03-02T05:01:35;40.92;;;25.90;;
21274;SDS011;36472;52.170;20.884;2024-03-02T05:04:04;40.55;;;25.20;;
21274;SDS011;36472;52.170;20.884;2024-03-02T05:06:33;41.58;;;25.92;;
21274;SDS011;36472;52.170;20.884;2024-03-02T05:09:03;41.92;;;26.05;;
21274;SDS011;36472;52.170;20.884;2024-03-02T05:11:33;38.83;;;25.38;;
21274;SDS011;36472;52.170;20.884;2024-03-02T05:14:36;43.35;;;27.10;;
21274;SDS011;36472;52.170;20.884;2024-03-02T05:17:05;43.78;;;25.67;;
21274;SDS011;36472;52.170;20.884;2024-03-02T05:19:34;39.60;;;25.23;;
21274;SDS011;36472;52.170;20.884;2024-03-02T05:22:03;41.42;;;25.30;;
21274;SDS011;36472;52.170;20.884;2024-03-02T05:24:34;44.97;;;26.23;;
21274;SDS011;36472;52.170;20.884;2024-03-02T05:27:03;43.42;;;26.75;;
21274;SDS011;36472;52.170;20.884;2024-03-02T05:29:34;40.75;;;25.50;;
21274;SDS011;36472;52.170;20.884;2024-03-02T05:32:03;38.03;;;23.77;;
21274;SDS011;36472;52.170;20.884;2024-03-02T05:34:32;39.17;;;24.50;;
21274;SDS011;36472;52.170;20.884;2024-03-02T05:37:03;39.42;;;25.33;;
21274;SDS011;36472;52.170;20.884;2024-03-02T05:39:32;39.80;;;24.83;;
21274;SDS011;36472;52.170;20.884;2024-03-02T05:42:05;43.22;;;24.08;;
21274;SDS011;36472;52.170;20.884;2024-03-02T05:44:34;39.20;;;24.98;;
21274;SDS011;36472;52.170;20.884;2024-03-02T05:47:04;43.00;;;25.13;;
21274;SDS011;36472;52.170;20.884;2024-03-02T05:49:35;41.20;;;26.00;;
21274;SDS011;36472;52.170;20.884;2024-03-02T05:52:05;43.85;;;26.63;;
21274;SDS011;36472;52.170;20.884;2024-03-02T05:54:36;40.63;;;24.80;;
21274;SDS011;36472;52.170;20.884;2024-03-02T05:57:06;39.92;;;24.13;;
21274;SDS011;36472;52.170;20.884;2024-03-02T05:59:55;44.10;;;23.52;;
21274;SDS011;36472;52.170;20.884;2024-03-02T06:02:25;38.30;;;23.73;;
21274;SDS011;36472;52.170;20.884;2024-03-02T06:04:55;37.60;;;22.55;;
21274;SDS011;36472;52.170;20.884;2024-03-02T06:07:24;35.38;;;23.20;;
21274;SDS011;36472;52.170;20.884;2024-03-02T06:09:55;37.28;;;24.08;;
21274;SDS011;36472;52.170;20.884;2024-03-02T06:12:24;40.35;;;25.23;;
21274;SDS011;36472;52.170;20.884;2024-03-02T06:14:53;37.60;;;23.98;;
21274;SDS011;36472;52.170;20.884;2024-03-02T06:17:23;36.35;;;23.15;;
21274;SDS011;36472;52.170;20.884;2024-03-02T06:19:51;38.60;;;22.73;;
21274;SDS011;36472;52.170;20.884;2024-03-02T06:22:21;39.42;;;22.85;;
21274;SDS011;36472;52.170;20.884;2024-03-02T06:24:51;34.08;;;21.98;;
21274;SDS011;36472;52.170;20.884;2024-03-02T06:27:22;38.13;;;23.20;;
21274;SDS011;36472;52.170;20.884;2024-03-02T06:29:51;39.00;;;23.90;;
21274;SDS011;36472;52.170;20.884;2024-03-02T06:32:22;36.63;;;23.02;;
21274;SDS011;36472;52.170;20.884;2024-03-02T06:34:52;37.95;;;23.67;;
21274;SDS011;36472;52.170;20.884;2024-03-02T06:37:23;36.92;;;22.90;;
21274;SDS011;36472;52.170;20.884;2024-03-02T06:39:52;37.22;;;22.17;;
21274;SDS011;36472;52.170;20.884;2024-03-02T06:42:23;37.92;;;22.95;;
21274;SDS011;36472;52.170;20.884;2024-03-02T06:44:52;42.70;;;23.80;;
21274;SDS011;36472;52.170;20.884;2024-03-02T06:47:21;32.97;;;21.73;;
21274;SDS011;36472;52.170;20.884;2024-03-02T06:49:51;37.70;;;21.77;;
21274;SDS011;36472;52.170;20.884;2024-03-02T06:52:20;38.22;;;23.20;;
21274;SDS011;36472;52.170;20.884;2024-03-02T06:54:51;36.58;;;22.95;;
21274;SDS011;36472;52.170;20.884;2024-03-02T06:57:20;33.25;;;21.58;;
21274;SDS011;36472;52.170;20.884;2024-03-02T06:59:51;33.28;;;21.23;;
21274;SDS011;36472;52.170;20.884;2024-03-02T07:02:22;34.88;;;21.90;;
21274;SDS011;36472;52.170;20.884;2024-03-02T07:04:52;36.03;;;21.38;;
21274;SDS011;36472;52.170;20.884;2024-03-02T07:07:21;35.47;;;22.33;;
21274;SDS011;36472;52.170;20.884;2024-03-02T07:09:50;33.45;;;21.02;;
21274;SDS011;36472;52.170;20.884;2024-03-02T07:12:18;34.83;;;21.23;;
21274;SDS011;36472;52.170;20.884;2024-03-02T07:19:20;33.95;;;21.02;;
21274;SDS011;36472;52.170;20.884;2024-03-02T07:21:49;33.65;;;21.15;;
21274;SDS011;36472;52.170;20.884;2024-03-02T07:24:19;37.65;;;21.30;;
21274;SDS011;36472;52.170;20.884;2024-03-02T07:26:48;33.58;;;19.60;;
21274;SDS011;36472;52.170;20.884;2024-03-02T07:29:20;30.15;;;19.77;;
21274;SDS011;36472;52.170;20.884;2024-03-02T07:31:50;34.88;;;19.60;;
21274;SDS011;36472;52.170;20.884;2024-03-02T07:38:56;34.83;;;21.02;;
21274;SDS011;36472;52.170;20.884;2024-03-02T07:41:25;33.97;;;20.25;;
21274;SDS011;36472;52.170;20.884;2024-03-02T07:43:55;35.67;;;21.02;;
21274;SDS011;36472;52.170;20.884;2024-03-02T07:46:26;31.67;;;19.55;;
21274;SDS011;36472;52.170;20.884;2024-03-02T07:48:55;30.90;;;19.65;;
21274;SDS011;36472;52.170;20.884;2024-03-02T07:51:24;30.00;;;19.55;;
21274;SDS011;36472;52.170;20.884;2024-03-02T07:53:53;33.72;;;20.67;;
21274;SDS011;36472;52.170;20.884;2024-03-02T07:56:24;38.70;;;21.23;;
21274;SDS011;36472;52.170;20.884;2024-03-02T07:58:53;31.48;;;20.98;;
21274;SDS011;36472;52.170;20.884;2024-03-02T08:01:24;33.47;;;20.58;;
21274;SDS011;36472;52.170;20.884;2024-03-02T08:03:53;35.30;;;21.52;;
21274;SDS011;36472;52.170;20.884;2024-03-02T08:06:25;36.22;;;21.55;;
21274;SDS011;36472;52.170;20.884;2024-03-02T08:08:55;30.33;;;19.50;;
21274;SDS011;36472;52.170;20.884;2024-03-02T08:11:27;31.55;;;19.58;;
21274;SDS011;36472;52.170;20.884;2024-03-02T08:13:58;30.17;;;18.50;;
21274;SDS011;36472;52.170;20.884;2024-03-02T08:16:27;29.38;;;19.27;;
21274;SDS011;36472;52.170;20.884;2024-03-02T08:18:56;31.98;;;19.95;;
21274;SDS011;36472;52.170;20.884;2024-03-02T08:21:25;34.42;;;19.35;;
21274;SDS011;36472;52.170;20.884;2024-03-02T08:23:57;33.45;;;19.02;;
21274;SDS011;36472;52.170;20.884;2024-03-02T08:26:28;31.95;;;20.25;;
21274;SDS011;36472;52.170;20.884;2024-03-02T08:28:59;33.90;;;18.95;;
21274;SDS011;36472;52.170;20.884;2024-03-02T08:31:28;33.00;;;19.35;;
21274;SDS011;36472;52.170;20.884;2024-03-02T08:33:57;32.42;;;18.67;;
21274;SDS011;36472;52.170;20.884;2024-03-02T08:36:27;33.95;;;19.50;;
21274;SDS011;36472;52.170;20.884;2024-03-02T08:38:56;33.22;;;19.65;;
21274;SDS011;36472;52.170;20.884;2024-03-02T08:41:25;32.83;;;20.35;;
21274;SDS011;36472;52.170;20.884;2024-03-02T08:43:56;34.47;;;19.65;;
21274;SDS011;36472;52.170;20.884;2024-03-02T08:46:25;33.35;;;19.20;;
21274;SDS011;36472;52.170;20.884;2024-03-02T08:48:54;33.42;;;20.35;;
21274;SDS011;36472;52.170;20.884;2024-03-02T08:51:23;33.35;;;19.17;;
21274;SDS011;36472;52.170;20.884;2024-03-02T08:53:54;31.60;;;19.17;;
21274;SDS011;36472;52.170;20.884;2024-03-02T08:56:23;32.85;;;20.17;;
21274;SDS011;36472;52.170;20.884;2024-03-02T08:58:54;30.80;;;19.45;;
21274;SDS011;36472;52.170;20.884;2024-03-02T09:01:23;31.95;;;19.05;;
21274;SDS011;36472;52.170;20.884;2024-03-02T09:03:53;34.33;;;19.90;;
21274;SDS011;36472;52.170;20.884;2024-03-02T09:06:23;31.95;;;20.33;;
21274;SDS011;36472;52.170;20.884;2024-03-02T09:08:53;38.35;;;21.88;;
21274;SDS011;36472;52.170;20.884;2024-03-02T09:11:22;36.20;;;20.52;;
21274;SDS011;36472;52.170;20.884;2024-03-02T09:13:52;32.30;;;20.80;;
21274;SDS011;36472;52.170;20.884;2024-03-02T09:16:23;32.08;;;20.08;;
21274;SDS011;36472;52.170;20.884;2024-03-02T09:18:58;32.85;;;20.73;;
21274;SDS011;36472;52.170;20.884;2024-03-02T09:21:27;34.08;;;21.02;;
21274;SDS011;36472;52.170;20.884;2024-03-02T09:23:57;35.55;;;20.15;;
21274;SDS011;36472;52.170;20.884;2024-03-02T09:26:26;33.40;;;20.30;;
21274;SDS011;36472;52.170;20.884;2024-03-02T09:28:57;32.25;;;20.13;;
21274;SDS011;36472;52.170;20.884;2024-03-02T09:31:26;29.83;;;18.90;;
21274;SDS011;36472;52.170;20.884;2024-03-02T09:33:55;36.40;;;20.45;;
21274;SDS011;36472;52.170;20.884;2024-03-02T09:36:24;31.92;;;20.45;;
21274;SDS011;36472;52.170;20.884;2024-03-02T09:38:53;30.50;;;20.08;;
21274;SDS011;36472;52.170;20.884;2024-03-02T09:41:22;35.72;;;21.50;;
21274;SDS011;36472;52.170;20.884;2024-03-02T09:43:53;37.53;;;22.13;;
21274;SDS011;36472;52.170;20.884;2024-03-02T10:00:08;34.08;;;19.63;;
21274;SDS011;36472;52.170;20.884;2024-03-02T10:02:42;31.83;;;19.67;;
21274;SDS011;36472;52.170;20.884;2024-03-02T10:05:11;34.95;;;20.45;;
21274;SDS011;36472;52.170;20.884;2024-03-02T10:07:40;34.60;;;20.20;;
21274;SDS011;36472;52.170;20.884;2024-03-02T10:10:13;33.78;;;20.10;;
21274;SDS011;36472;52.170;20.884;2024-03-02T10:12:43;30.15;;;19.88;;
21274;SDS011;36472;52.170;20.884;2024-03-02T10:15:14;32.28;;;18.92;;
21274;SDS011;36472;52.170;20.884;2024-03-02T10:17:55;32.58;;;20.00;;
21274;SDS011;36472;52.170;20.884;2024-03-02T10:20:25;30.00;;;18.60;;
21274;SDS011;36472;52.170;20.884;2024-03-02T10:22:56;32.20;;;19.25;;
21274;SDS011;36472;52.170;20.884;2024-03-02T10:25:42;30.58;;;19.05;;
21274;SDS011;36472;52.170;20.884;2024-03-02T10:28:23;33.40;;;20.40;;
21274;SDS011;36472;52.170;20.884;2024-03-02T10:30:56;33.20;;;19.02;;
21274;SDS011;36472;52.170;20.884;2024-03-02T10:33:26;30.42;;;19.02;;
21274;SDS011;36472;52.170;20.884;2024-03-02T10:35:57;33.67;;;20.10;;
21274;SDS011;36472;52.170;20.884;2024-03-02T10:38:26;33.88;;;18.70;;
21274;SDS011;36472;52.170;20.884;2024-03-02T10:40:55;35.80;;;22.50;;
21274;SDS011;36472;52.170;20.884;2024-03-02T10:43:26;31.95;;;20.05;;
21274;SDS011;36472;52.170;20.884;2024-03-02T10:45:57;32.45;;;20.02;;
21274;SDS011;36472;52.170;20.884;2024-03-02T10:48:26;36.10;;;21.08;;
21274;SDS011;36472;52.170;20.884;2024-03-02T10:50:57;33.08;;;20.80;;
21274;SDS011;36472;52.170;20.884;2024-03-02T10:53:28;31.70;;;20.17;;
21274;SDS011;36472;52.170;20.884;2024-03-02T10:55:58;32.45;;;20.40;;
21274;SDS011;36472;52.170;20.884;2024-03-02T10:58:31;36.22;;;21.95;;
21274;SDS011;36472;52.170;20.884;2024-03-02T11:01:05;30.23;;;18.98;;
21274;SDS011;36472;52.170;20.884;2024-03-02T11:03:36;30.95;;;19.35;;
21274;SDS011;36472;52.170;20.884;2024-03-02T11:06:07;29.27;;;18.10;;
21274;SDS011;36472;52.170;20.884;2024-03-02T11:08:39;32.65;;;19.00;;
21274;SDS011;36472;52.170;20.884;2024-03-02T11:11:13;29.08;;;18.17;;
21274;SDS011;36472;52.170;20.884;2024-03-02T11:13:52;27.48;;;17.15;;
21274;SDS011;36472;52.170;20.884;2024-03-02T11:16:31;29.48;;;18.38;;
21274;SDS011;36472;52.170;20.884;2024-03-02T11:19:09;32.60;;;19.05;;
21274;SDS011;36472;52.170;20.884;2024-03-02T11:26:17;31.83;;;19.65;;
21274;SDS011;36472;52.170;20.884;2024-03-02T11:28:46;33.17;;;19.30;;
21274;SDS011;36472;52.170;20.884;2024-03-02T11:31:16;31.38;;;19.27;;
21274;SDS011;36472;52.170;20.884;2024-03-02T11:33:47;31.48;;;19.65;;
21274;SDS011;36472;52.170;20.884;2024-03-02T11:36:16;32.97;;;19.67;;
21274;SDS011;36472;52.170;20.884;2024-03-02T11:38:46;33.55;;;19.77;;
21274;SDS011;36472;52.170;20.884;2024-03-02T11:41:16;31.58;;;20.33;;
21274;SDS011;36472;52.170;20.884;2024-03-02T11:43:47;31.88;;;21.05;;
21274;SDS011;36472;52.170;20.884;2024-03-02T11:46:17;34.40;;;21.02;;
21274;SDS011;36472;52.170;20.884;2024-03-02T11:48:52;32.88;;;20.00;;
21274;SDS011;36472;52.170;20.884;2024-03-02T11:51:22;34.95;;;22.38;;
21274;SDS011;36472;52.170;20.884;2024-03-02T11:53:53;34.50;;;21.52;;
21274;SDS011;36472;52.170;20.884;2024-03-02T11:56:25;29.67;;;20.90;;
21274;SDS011;36472;52.170;20.884;2024-03-02T11:58:56;32.50;;;22.27;;
21274;SDS011;36472;52.170;20.884;2024-03-02T12:06:02;35.88;;;22.98;;
21274;SDS011;36472;52.170;20.884;2024-03-02T12:08:32;36.50;;;23.15;;
21274;SDS011;36472;52.170;20.884;2024-03-02T12:11:02;35.80;;;21.77;;
21274;SDS011;36472;52.170;20.884;2024-03-02T12:13:34;33.28;;;21.90;;
21274;SDS011;36472;52.170;20.884;2024-03-02T13:36:22;39.17;;;25.13;;
21274;SDS011;36472;52.170;20.884;2024-03-02T13:38:51;38.33;;;25.58;;
21274;SDS011;36472;52.170;20.884;2024-03-02T13:41:21;40.50;;;26.17;;
21274;SDS011;36472;52.170;20.884;2024-03-02T13:43:50;41.13;;;25.88;;
21274;SDS011;36472;52.170;20.884;2024-03-02T13:46:20;40.63;;;26.98;;
21274;SDS011;36472;52.170;20.884;2024-03-02T13:48:51;39.75;;;25.75;;
21274;SDS011;36472;52.170;20.884;2024-03-02T13:55:57;40.20;;;27.98;;
21274;SDS011;36472;52.170;20.884;2024-03-02T14:02:58;41.22;;;28.02;;
21274;SDS011;36472;52.170;20.884;2024-03-02T14:05:28;42.95;;;28.83;;
21274;SDS011;36472;52.170;20.884;2024-03-02T14:07:57;40.38;;;27.55;;
21274;SDS011;36472;52.170;20.884;2024-03-02T14:10:27;43.88;;;29.50;;
21274;SDS011;36472;52.170;20.884;2024-03-02T14:12:57;40.28;;;28.42;;
21274;SDS011;36472;52.170;20.884;2024-03-02T14:15:27;42.78;;;28.33;;
21274;SDS011;36472;52.170;20.884;2024-03-02T14:22:30;44.28;;;29.05;;
21274;SDS011;36472;52.170;20.884;2024-03-02T14:25:00;43.97;;;28.15;;
21274;SDS011;36472;52.170;20.884;2024-03-02T14:27:30;43.22;;;28.83;;
21274;SDS011;36472;52.170;20.884;2024-03-02T14:30:20;41.10;;;27.45;;
21274;SDS011;36472;52.170;20.884;2024-03-02T14:32:49;41.08;;;27.52;;
21274;SDS011;36472;52.170;20.884;2024-03-02T14:35:18;44.28;;;28.50;;
21274;SDS011;36472;52.170;20.884;2024-03-02T14:37:50;39.88;;;28.08;;
21274;SDS011;36472;52.170;20.884;2024-03-02T14:40:21;42.72;;;29.52;;
21274;SDS011;36472;52.170;20.884;2024-03-02T14:42:52;45.53;;;27.88;;
21274;SDS011;36472;52.170;20.884;2024-03-02T14:45:23;43.47;;;29.23;;
21274;SDS011;36472;52.170;20.884;2024-03-02T14:47:53;41.13;;;27.30;;
21274;SDS011;36472;52.170;20.884;2024-03-02T14:50:26;40.80;;;28.67;;
21274;SDS011;36472;52.170;20.884;2024-03-02T14:52:56;40.67;;;26.45;;
21274;SDS011;36472;52.170;20.884;2024-03-02T14:55:25;40.35;;;26.75;;
21274;SDS011;36472;52.170;20.884;2024-03-02T14:57:55;46.13;;;28.48;;
21274;SDS011;36472;52.170;20.884;2024-03-02T15:00:25;41.08;;;27.88;;
21274;SDS011;36472;52.170;20.884;2024-03-02T15:02:54;42.30;;;29.08;;
21274;SDS011;36472;52.170;20.884;2024-03-02T15:05:23;43.28;;;28.27;;
21274;SDS011;36472;52.170;20.884;2024-03-02T15:07:53;46.92;;;27.98;;
21274;SDS011;36472;52.170;20.884;2024-03-02T15:10:25;41.65;;;28.30;;
21274;SDS011;36472;52.170;20.884;2024-03-02T15:12:54;43.42;;;29.00;;
21274;SDS011;36472;52.170;20.884;2024-03-02T15:15:23;42.47;;;28.15;;
21274;SDS011;36472;52.170;20.884;2024-03-02T15:17:54;41.80;;;29.50;;
21274;SDS011;36472;52.170;20.884;2024-03-02T15:20:23;45.67;;;29.05;;
21274;SDS011;36472;52.170;20.884;2024-03-02T15:22:53;44.42;;;29.35;;
21274;SDS011;36472;52.170;20.884;2024-03-02T15:25:21;46.38;;;29.75;;
21274;SDS011;36472;52.170;20.884;2024-03-02T15:27:51;45.92;;;29.60;;
21274;SDS011;36472;52.170;20.884;2024-03-02T15:34:55;47.45;;;29.88;;
21274;SDS011;36472;52.170;20.884;2024-03-02T15:37:24;47.33;;;29.30;;
21274;SDS011;36472;52.170;20.884;2024-03-02T15:39:54;44.50;;;30.75;;
21274;SDS011;36472;52.170;20.884;2024-03-02T15:42:32;47.40;;;30.17;;
21274;SDS011;36472;52.170;20.884;2024-03-02T15:45:02;47.00;;;31.45;;
21274;SDS011;36472;52.170;20.884;2024-03-02T15:47:32;44.55;;;29.17;;
21274;SDS011;36472;52.170;20.884;2024-03-02T15:50:05;49.40;;;30.02;;
21274;SDS011;36472;52.170;20.884;2024-03-02T15:52:34;47.33;;;31.05;;
21274;SDS011;36472;52.170;20.884;2024-03-02T15:55:04;40.58;;;30.20;;
21274;SDS011;36472;52.170;20.884;2024-03-02T15:57:34;41.45;;;29.63;;
21274;SDS011;36472;52.170;20.884;2024-03-02T16:00:03;43.63;;;30.30;;
21274;SDS011;36472;52.170;20.884;2024-03-02T16:02:38;43.60;;;29.20;;
21274;SDS011;36472;52.170;20.884;2024-03-02T16:05:08;44.33;;;28.83;;
21274;SDS011;36472;52.170;20.884;2024-03-02T16:07:38;44.28;;;28.88;;
21274;SDS011;36472;52.170;20.884;2024-03-02T16:10:07;44.67;;;29.48;;
21274;SDS011;36472;52.170;20.884;2024-03-02T16:12:37;45.67;;;30.73;;
21274;SDS011;36472;52.170;20.884;2024-03-02T16:15:06;44.15;;;28.88;;
21274;SDS011;36472;52.170;20.884;2024-03-02T16:17:36;42.00;;;28.90;;
21274;SDS011;36472;52.170;20.884;2024-03-02T16:20:06;46.47;;;30.80;;
21274;SDS011;36472;52.170;20.884;2024-03-02T16:22:37;42.70;;;28.30;;
21274;SDS011;36472;52.170;20.884;2024-03-02T16:25:06;45.38;;;29.55;;
21274;SDS011;36472;52.170;20.884;2024-03-02T16:27:36;45.08;;;30.40;;
21274;SDS011;36472;52.170;20.884;2024-03-02T16:30:07;51.88;;;33.30;;
21274;SDS011;36472;52.170;20.884;2024-03-02T16:32:36;44.45;;;31.10;;
21274;SDS011;36472;52.170;20.884;2024-03-02T16:35:06;46.78;;;30.58;;
21274;SDS011;36472;52.170;20.884;2024-03-02T16:37:36;48.17;;;30.75;;
21274;SDS011;36472;52.170;20.884;2024-03-02T16:40:06;48.97;;;31.65;;
21274;SDS011;36472;52.170;20.884;2024-03-02T16:42:36;44.20;;;29.80;;